SBSP/CGH METAR and TAF weather

Enter ICAO airport designator
Station Type Date Time Source
SBSP METAR 2020/09/25 08:00 UTC NOAA

SBSP 250800Z AUTO 00000KT 8000 // NCD 15/13 Q1021


Station Type Date Time Source
SBSP Decoded METAR 2020/09/25 08:00 UTC NOAA

Sao Paulo/Congonhas Aeroporto, Brazil (SBSP) 23-37S 046-39W 802M
Sep 25, 2020 - 04:00 AM EDT / 2020.09.25 0800 UTC
Wind: Calm:0
Visibility: 4 mile(s):0
Temperature: 59 F (15 C)
Dew Point: 55 F (13 C)
Relative Humidity: 87%
Pressure (altimeter): 30.15 in. Hg (1021 hPa)
ob: SBSP 250800Z AUTO 00000KT 8000 // NCD 15/13 Q1021
cycle: 8

Station Type Date Time Source
SBSP TAF 2020/09/25 06:21 UTC NOAA

TAF SBSP 250210Z 2506/2518 12005KT 8000 SCT015 TN16/2508Z TX29/2517Z PROB30 2508/2511 4000 BR BKN006
BECMG 2511/2513 15005KT CAVOK
TEMPO 2515/2518 22005KT
RMK PGL

Example: see airport list